Terminal Aerodrome Forecast
Issued by NWS

Current Version | Previous Version | Text Only | Print | Product List | Glossary On
Versions: 1 2 3 4 5 6 7 8 9 10 11 12 13 14 15 16 17 18 19 20 21 22 23 24
061
FTUS43 KDLH 272331
TAFHYR
TAF
KHYR 272331Z 2800/2824 21008KT P6SM SCT250
     FM280500 18005KT P6SM SCT150 WS020/20030KT
     FM281000 17007KT P6SM VCSH SCT050 BKN100 WS020/20035KT
     FM281200 16010KT 5SM -SHRA BR VCTS BKN025 OVC050CB
      WS020/20030KT
     FM281600 17011G18KT 4SM SHRA VCTS BKN010 OVC025CB
     FM282000 16010G18KT 3SM SHRA VCTS BKN008 OVC020CB=

USA.gov is the U.S. government's official web portal to all federal, state and local government web resources and services.